Time;durP1;ratioP1;P1;durP2;ratioP2;P2;SDS_P1;SDS_P2;PMS_P1;PMS_P2;Temp;Humidity;BMP_temperature;BMP_pressure;BME280_temperature;BME280_humidity;BME280_pressure;Samples;Min_cycle;Max_cycle;Signal;HPM_P1;HPM_P2
2024/01/03 00:00:54;;;;;;;7.05;5.03;;;;;;;;;;5020187;28;20025;-75
2024/01/03 00:03:21;;;;;;;5.50;2.83;;;;;;;;;;5024241;28;20116;-75
2024/01/03 00:05:48;;;;;;;14.35;3.00;;;;;;;;;;5034459;28;20029;-74
2024/01/03 00:08:27;;;;;;;4.28;2.65;;;;;;;;;;5026584;28;20108;-75
2024/01/03 00:10:57;;;;;;;3.22;2.88;;;;;;;;;;5036267;28;20029;-75
2024/01/03 00:13:32;;;;;;;3.20;2.85;;;;;;;;;;5020112;28;20049;-74
2024/01/03 00:16:18;;;;;;;6.57;2.75;;;;;;;;;;5021634;28;20698;-74
2024/01/03 00:18:44;;;;;;;6.05;3.08;;;;;;;;;;5021505;28;20104;-75
2024/01/03 00:21:11;;;;;;;5.85;2.40;;;;;;;;;;5018602;28;20028;-75
2024/01/03 00:23:38;;;;;;;7.22;3.17;;;;;;;;;;5020724;28;20063;-74
2024/01/03 00:26:05;;;;;;;5.70;2.58;;;;;;;;;;5021310;28;20033;-74
2024/01/03 00:28:32;;;;;;;6.10;2.95;;;;;;;;;;5020455;28;20037;-75
2024/01/03 00:30:59;;;;;;;4.35;3.38;;;;;;;;;;5022910;28;20112;-74
2024/01/03 00:33:26;;;;;;;5.15;3.08;;;;;;;;;;5021979;28;20018;-75
2024/01/03 00:35:52;;;;;;;7.78;3.17;;;;;;;;;;5020205;28;20026;-75
2024/01/03 00:38:19;;;;;;;8.65;3.50;;;;;;;;;;5019366;28;20078;-75
2024/01/03 00:40:45;;;;;;;3.55;2.97;;;;;;;;;;5022771;28;20455;-74
2024/01/03 00:43:11;;;;;;;3.65;2.95;;;;;;;;;;5021610;28;20029;-74
2024/01/03 00:45:37;;;;;;;12.13;3.33;;;;;;;;;;5016138;28;20492;-75
2024/01/03 00:48:03;;;;;;;3.35;2.72;;;;;;;;;;5021941;28;20030;-74
2024/01/03 00:50:29;;;;;;;2.95;2.65;;;;;;;;;;5020149;28;20099;-73
2024/01/03 00:52:55;;;;;;;4.05;2.50;;;;;;;;;;5017967;28;20389;-71
2024/01/03 00:55:21;;;;;;;3.90;2.42;;;;;;;;;;5024347;28;20025;-78
2024/01/03 00:57:48;;;;;;;7.20;4.43;;;;;;;;;;5019098;28;20037;-74
2024/01/03 01:00:14;;;;;;;4.65;2.53;;;;;;;;;;5032439;28;20108;-74
2024/01/03 01:02:40;;;;;;;4.20;2.20;;;;;;;;;;5018340;28;20435;-75
2024/01/03 01:05:06;;;;;;;3.33;2.38;;;;;;;;;;5017324;28;20033;-75
2024/01/03 01:07:32;;;;;;;3.67;2.70;;;;;;;;;;5022045;28;20030;-74
2024/01/03 01:09:58;;;;;;;5.25;2.47;;;;;;;;;;5022196;28;20904;-75
2024/01/03 01:12:25;;;;;;;8.93;2.28;;;;;;;;;;5014923;28;20025;-75
2024/01/03 01:14:51;;;;;;;3.13;2.30;;;;;;;;;;5022532;28;20101;-75
2024/01/03 01:17:17;;;;;;;2.53;2.08;;;;;;;;;;5021452;28;20033;-75
2024/01/03 01:19:43;;;;;;;5.32;3.03;;;;;;;;;;5019422;28;20594;-74
2024/01/03 01:22:09;;;;;;;1.92;1.80;;;;;;;;;;5020146;28;20037;-74
2024/01/03 01:24:36;;;;;;;4.90;2.17;;;;;;;;;;5023142;28;20280;-75
2024/01/03 01:27:02;;;;;;;5.85;2.22;;;;;;;;;;5025519;28;20053;-75
2024/01/03 01:29:28;;;;;;;2.22;2.03;;;;;;;;;;5020131;28;20105;-74
2024/01/03 01:31:54;;;;;;;3.80;2.63;;;;;;;;;;5018602;28;20029;-75
2024/01/03 01:34:20;;;;;;;7.30;2.95;;;;;;;;;;5020512;28;20068;-75
2024/01/03 01:36:47;;;;;;;11.02;2.67;;;;;;;;;;5038489;28;20077;-74
2024/01/03 01:39:13;;;;;;;3.50;1.90;;;;;;;;;;5020794;28;20103;-75
2024/01/03 01:41:39;;;;;;;2.70;2.20;;;;;;;;;;5018816;28;20061;-75
2024/01/03 01:44:06;;;;;;;8.75;2.90;;;;;;;;;;5022699;28;20033;-74
2024/01/03 01:46:34;;;;;;;2.95;2.03;;;;;;;;;;5023004;28;20429;-75
2024/01/03 01:49:00;;;;;;;5.15;2.42;;;;;;;;;;5019361;28;20033;-74
2024/01/03 01:51:27;;;;;;;6.47;3.10;;;;;;;;;;5036729;28;21370;-75
2024/01/03 01:53:53;;;;;;;5.35;2.45;;;;;;;;;;5022795;28;20048;-75
2024/01/03 01:56:21;;;;;;;4.55;2.17;;;;;;;;;;5020707;28;20030;-75
2024/01/03 01:58:47;;;;;;;4.35;2.15;;;;;;;;;;5022807;28;20378;-75
2024/01/03 02:01:14;;;;;;;7.30;2.40;;;;;;;;;;5015858;28;20029;-75
2024/01/03 02:03:41;;;;;;;3.55;2.25;;;;;;;;;;5020863;28;20500;-75
2024/01/03 02:06:09;;;;;;;5.63;2.65;;;;;;;;;;5018647;28;20095;-74
2024/01/03 02:08:36;;;;;;;10.02;2.78;;;;;;;;;;5020959;28;20036;-75
2024/01/03 02:11:04;;;;;;;3.80;2.80;;;;;;;;;;5017223;28;20105;-75
2024/01/03 02:13:30;;;;;;;3.42;2.42;;;;;;;;;;5019041;28;20547;-74
2024/01/03 02:15:56;;;;;;;7.60;2.65;;;;;;;;;;5024167;28;20033;-74
2024/01/03 02:18:23;;;;;;;2.55;2.20;;;;;;;;;;5018794;28;20030;-75
2024/01/03 02:20:50;;;;;;;5.10;2.83;;;;;;;;;;5018533;28;20029;-75
2024/01/03 02:23:16;;;;;;;5.60;2.10;;;;;;;;;;5022980;28;20508;-75
2024/01/03 02:25:42;;;;;;;8.10;2.33;;;;;;;;;;5021768;28;20116;-74
2024/01/03 02:28:12;;;;;;;3.60;2.42;;;;;;;;;;5020115;28;20061;-75
2024/01/03 02:30:41;;;;;;;4.03;1.77;;;;;;;;;;5038166;28;20025;-74
2024/01/03 02:33:07;;;;;;;2.45;1.85;;;;;;;;;;5018326;28;20112;-75
2024/01/03 02:35:34;;;;;;;3.28;2.40;;;;;;;;;;5038998;28;20726;-75
2024/01/03 02:38:00;;;;;;;4.78;2.72;;;;;;;;;;5016413;28;20033;-74
2024/01/03 02:40:26;;;;;;;4.65;2.78;;;;;;;;;;5019036;28;20053;-75
2024/01/03 02:42:52;;;;;;;4.68;2.25;;;;;;;;;;5017000;28;20061;-75
2024/01/03 02:45:18;;;;;;;7.38;2.47;;;;;;;;;;5020541;28;20039;-74
2024/01/03 02:47:44;;;;;;;5.55;2.20;;;;;;;;;;5015598;28;20034;-75
2024/01/03 02:50:10;;;;;;;3.17;2.58;;;;;;;;;;5020388;28;20069;-74
2024/01/03 02:52:36;;;;;;;5.53;2.92;;;;;;;;;;5025178;28;20034;-75
2024/01/03 02:55:03;;;;;;;5.53;2.47;;;;;;;;;;5022180;28;20055;-75
2024/01/03 02:57:29;;;;;;;2.90;2.13;;;;;;;;;;5019299;28;20086;-75
2024/01/03 02:59:55;;;;;;;7.40;2.78;;;;;;;;;;5037784;28;20029;-75
2024/01/03 03:02:22;;;;;;;16.35;2.85;;;;;;;;;;5025059;28;20084;-75
2024/01/03 03:04:48;;;;;;;4.82;2.67;;;;;;;;;;5023693;28;20468;-75
2024/01/03 03:07:14;;;;;;;4.38;2.53;;;;;;;;;;5022068;28;20120;-75
2024/01/03 03:09:40;;;;;;;9.68;2.65;;;;;;;;;;5024493;28;20056;-75
2024/01/03 03:12:07;;;;;;;3.92;2.42;;;;;;;;;;5020612;28;20025;-75
2024/01/03 03:14:33;;;;;;;9.43;2.30;;;;;;;;;;5013286;28;20044;-75
2024/01/03 03:16:59;;;;;;;3.92;2.60;;;;;;;;;;5019375;28;20033;-75
2024/01/03 03:19:25;;;;;;;3.13;2.30;;;;;;;;;;5024022;28;20052;-75
2024/01/03 03:21:51;;;;;;;5.32;2.33;;;;;;;;;;5015915;28;20061;-75
2024/01/03 03:24:17;;;;;;;6.00;2.65;;;;;;;;;;5022443;28;20400;-74
2024/01/03 03:26:43;;;;;;;3.63;2.28;;;;;;;;;;5011251;28;20397;-75
2024/01/03 03:29:09;;;;;;;3.65;2.22;;;;;;;;;;5016531;28;20478;-74
2024/01/03 03:31:36;;;;;;;3.53;2.75;;;;;;;;;;5011962;28;20022;-74
2024/01/03 03:34:02;;;;;;;9.60;2.80;;;;;;;;;;5015573;28;20080;-75
2024/01/03 03:36:28;;;;;;;5.57;2.38;;;;;;;;;;5010639;28;20506;-75
2024/01/03 03:38:54;;;;;;;6.28;2.58;;;;;;;;;;5021782;28;20292;-75
2024/01/03 03:41:22;;;;;;;3.92;3.03;;;;;;;;;;5016139;28;20032;-74
2024/01/03 03:43:48;;;;;;;7.60;2.60;;;;;;;;;;5018178;28;20029;-75
2024/01/03 03:46:17;;;;;;;4.40;2.60;;;;;;;;;;5017100;28;20410;-74
2024/01/03 03:48:43;;;;;;;7.13;3.42;;;;;;;;;;5017793;28;20105;-75
2024/01/03 03:51:10;;;;;;;4.60;2.78;;;;;;;;;;5018860;28;20049;-75
2024/01/03 03:53:36;;;;;;;6.38;2.40;;;;;;;;;;5029375;28;20473;-74
2024/01/03 03:56:02;;;;;;;7.80;2.83;;;;;;;;;;5017537;28;20061;-74
2024/01/03 03:58:28;;;;;;;4.10;2.60;;;;;;;;;;5017094;28;20659;-75
2024/01/03 04:00:54;;;;;;;7.47;3.38;;;;;;;;;;5018291;28;20038;-75
2024/01/03 04:03:21;;;;;;;6.72;3.08;;;;;;;;;;5051862;28;20519;-75
2024/01/03 04:05:47;;;;;;;2.50;2.30;;;;;;;;;;5016876;28;20036;-74
2024/01/03 04:08:14;;;;;;;3.95;2.10;;;;;;;;;;5016978;28;20109;-75
2024/01/03 04:10:40;;;;;;;9.50;4.00;;;;;;;;;;5016150;28;20435;-74
2024/01/03 04:13:07;;;;;;;3.95;2.88;;;;;;;;;;5028059;28;20032;-74
2024/01/03 04:15:33;;;;;;;4.50;2.53;;;;;;;;;;5017112;28;20026;-75
2024/01/03 04:18:00;;;;;;;7.93;2.63;;;;;;;;;;5021630;28;20033;-74
2024/01/03 04:20:26;;;;;;;3.63;2.30;;;;;;;;;;5023196;28;20033;-75
2024/01/03 04:22:52;;;;;;;4.30;3.30;;;;;;;;;;5019446;28;20091;-75
2024/01/03 04:25:18;;;;;;;3.75;2.70;;;;;;;;;;5031167;28;20025;-75
2024/01/03 04:27:44;;;;;;;5.18;2.40;;;;;;;;;;5018400;28;20669;-75
2024/01/03 04:30:11;;;;;;;3.35;2.47;;;;;;;;;;5010964;28;20029;-75
2024/01/03 04:32:37;;;;;;;3.17;2.55;;;;;;;;;;5019291;28;20084;-75
2024/01/03 04:35:03;;;;;;;8.23;2.53;;;;;;;;;;5045978;28;20037;-75
2024/01/03 04:37:32;;;;;;;3.95;2.40;;;;;;;;;;5020044;28;20034;-75
2024/01/03 04:39:58;;;;;;;4.63;2.30;;;;;;;;;;5046633;28;20032;-74
2024/01/03 04:42:24;;;;;;;5.28;2.75;;;;;;;;;;5028764;28;20116;-75
2024/01/03 04:44:50;;;;;;;4.97;2.63;;;;;;;;;;5022367;28;20033;-75
2024/01/03 04:47:17;;;;;;;16.15;2.92;;;;;;;;;;5038389;28;20029;-74
2024/01/03 04:49:43;;;;;;;3.60;2.05;;;;;;;;;;5023563;28;20049;-75
2024/01/03 04:52:11;;;;;;;2.80;2.38;;;;;;;;;;5020786;28;20037;-74
2024/01/03 04:54:37;;;;;;;5.55;2.70;;;;;;;;;;5020678;28;20034;-74
2024/01/03 04:57:03;;;;;;;6.03;2.58;;;;;;;;;;5024651;28;20046;-75
2024/01/03 04:59:30;;;;;;;4.63;2.60;;;;;;;;;;5043255;28;20459;-75
2024/01/03 05:01:56;;;;;;;8.07;2.95;;;;;;;;;;5023710;28;20034;-74
2024/01/03 05:04:22;;;;;;;5.68;2.50;;;;;;;;;;5043981;28;20087;-75
2024/01/03 05:06:50;;;;;;;2.38;2.08;;;;;;;;;;5027062;28;20033;-76
2024/01/03 05:09:16;;;;;;;6.07;2.88;;;;;;;;;;5023221;28;20033;-75
2024/01/03 05:11:43;;;;;;;7.07;2.67;;;;;;;;;;5025840;28;20017;-75
2024/01/03 05:14:09;;;;;;;10.15;3.97;;;;;;;;;;5022110;28;20036;-75
2024/01/03 05:16:35;;;;;;;3.13;2.22;;;;;;;;;;5017205;28;20034;-75
2024/01/03 05:19:01;;;;;;;2.05;1.95;;;;;;;;;;5024692;28;20025;-75
2024/01/03 05:21:27;;;;;;;3.83;2.67;;;;;;;;;;5014134;28;20122;-64
2024/01/03 05:23:53;;;;;;;3.15;2.22;;;;;;;;;;5023399;28;20045;-63
2024/01/03 05:26:19;;;;;;;11.23;2.15;;;;;;;;;;5030073;28;20034;-63
2024/01/03 05:28:45;;;;;;;3.10;2.75;;;;;;;;;;5021458;28;20033;-68
2024/01/03 05:31:12;;;;;;;5.70;2.72;;;;;;;;;;5019987;28;20029;-63
2024/01/03 05:33:38;;;;;;;5.60;2.60;;;;;;;;;;5018037;28;20030;-63
2024/01/03 05:36:04;;;;;;;10.45;2.58;;;;;;;;;;5013225;28;20037;-63
2024/01/03 05:38:31;;;;;;;2.55;2.22;;;;;;;;;;5013552;28;20079;-62
2024/01/03 05:40:57;;;;;;;2.40;2.20;;;;;;;;;;5029116;28;20026;-63
2024/01/03 05:43:24;;;;;;;4.63;2.80;;;;;;;;;;5022544;28;20509;-63
2024/01/03 05:45:51;;;;;;;4.78;2.25;;;;;;;;;;5016951;28;20037;-64
2024/01/03 05:48:17;;;;;;;5.80;2.40;;;;;;;;;;5008899;28;20040;-63
2024/01/03 05:50:43;;;;;;;3.17;2.63;;;;;;;;;;5015675;28;20046;-63
2024/01/03 05:53:10;;;;;;;7.68;2.92;;;;;;;;;;5016998;28;20076;-62
2024/01/03 05:55:37;;;;;;;4.95;2.47;;;;;;;;;;5037426;28;20032;-63
2024/01/03 05:58:03;;;;;;;3.33;2.22;;;;;;;;;;5017708;28;20038;-63
2024/01/03 06:00:30;;;;;;;5.45;2.22;;;;;;;;;;5022887;28;20037;-62
2024/01/03 06:02:56;;;;;;;8.95;2.60;;;;;;;;;;5016688;28;20453;-63
2024/01/03 06:05:23;;;;;;;6.45;2.30;;;;;;;;;;5015503;28;20111;-62
2024/01/03 06:07:49;;;;;;;2.33;2.13;;;;;;;;;;5018503;28;20133;-62
2024/01/03 06:10:18;;;;;;;5.53;2.30;;;;;;;;;;5008526;28;20056;-66
2024/01/03 06:12:44;;;;;;;3.28;2.30;;;;;;;;;;5019614;28;20028;-64
2024/01/03 06:15:10;;;;;;;5.65;2.30;;;;;;;;;;5015456;28;20022;-63
2024/01/03 06:17:36;;;;;;;7.13;3.97;;;;;;;;;;5022431;28;20071;-62
2024/01/03 06:20:03;;;;;;;5.80;2.47;;;;;;;;;;5020622;28;20243;-63
2024/01/03 06:22:29;;;;;;;2.60;2.17;;;;;;;;;;5011221;28;20029;-63
2024/01/03 06:24:55;;;;;;;2.42;2.15;;;;;;;;;;5019710;28;20030;-63
2024/01/03 06:27:21;;;;;;;7.75;2.67;;;;;;;;;;5025250;28;20033;-62
2024/01/03 06:29:47;;;;;;;2.92;2.15;;;;;;;;;;5018379;28;20500;-62
2024/01/03 06:32:14;;;;;;;2.53;2.30;;;;;;;;;;5010198;28;20034;-63
2024/01/03 06:34:43;;;;;;;10.93;2.75;;;;;;;;;;5023636;28;20034;-63
2024/01/03 06:37:09;;;;;;;4.97;2.38;;;;;;;;;;5018848;28;20033;-63
2024/01/03 06:39:35;;;;;;;6.22;2.50;;;;;;;;;;5018892;28;20065;-62
2024/01/03 06:42:02;;;;;;;11.23;2.78;;;;;;;;;;5017247;28;20036;-64
2024/01/03 06:44:28;;;;;;;4.70;2.38;;;;;;;;;;5010937;28;20060;-62
2024/01/03 06:46:54;;;;;;;2.30;2.10;;;;;;;;;;5017544;28;20108;-62
2024/01/03 06:49:22;;;;;;;6.55;2.65;;;;;;;;;;5012753;28;20053;-62
2024/01/03 06:51:48;;;;;;;4.93;2.08;;;;;;;;;;5010690;28;20405;-63
2024/01/03 06:54:14;;;;;;;6.45;3.00;;;;;;;;;;5018530;28;20036;-63
2024/01/03 06:56:41;;;;;;;4.82;2.30;;;;;;;;;;5010316;28;20418;-62
2024/01/03 06:59:10;;;;;;;6.47;2.63;;;;;;;;;;5012936;28;20041;-63
2024/01/03 07:01:37;;;;;;;4.25;2.50;;;;;;;;;;5039934;28;20030;-63
2024/01/03 07:04:03;;;;;;;8.82;2.65;;;;;;;;;;5013424;28;20032;-62
2024/01/03 07:06:33;;;;;;;7.10;3.00;;;;;;;;;;5012097;28;20902;-61
2024/01/03 07:09:01;;;;;;;4.13;2.55;;;;;;;;;;5031321;28;20533;-62
2024/01/03 07:11:27;;;;;;;6.97;3.50;;;;;;;;;;5014093;28;20520;-62
2024/01/03 07:13:53;;;;;;;4.60;2.58;;;;;;;;;;5022140;28;20022;-62
2024/01/03 07:16:19;;;;;;;3.20;2.75;;;;;;;;;;5015212;28;20453;-62
2024/01/03 07:18:46;;;;;;;5.10;2.58;;;;;;;;;;5013389;28;20030;-63
2024/01/03 07:21:12;;;;;;;2.45;2.25;;;;;;;;;;5027254;28;20029;-62
2024/01/03 07:23:39;;;;;;;4.13;2.67;;;;;;;;;;5014069;28;20025;-62
2024/01/03 07:26:05;;;;;;;2.78;2.35;;;;;;;;;;5013395;28;20034;-62
2024/01/03 07:28:32;;;;;;;6.68;2.85;;;;;;;;;;5005992;28;20021;-65
2024/01/03 07:30:58;;;;;;;4.93;2.80;;;;;;;;;;5015205;28;20112;-63
2024/01/03 07:33:25;;;;;;;3.53;2.90;;;;;;;;;;5023065;28;20013;-63
2024/01/03 07:35:51;;;;;;;2.70;2.20;;;;;;;;;;5017761;28;20032;-62
2024/01/03 07:38:17;;;;;;;2.60;2.40;;;;;;;;;;5012523;28;20025;-62
2024/01/03 07:40:43;;;;;;;2.78;2.42;;;;;;;;;;5009879;28;20878;-63
2024/01/03 07:43:09;;;;;;;2.55;2.35;;;;;;;;;;5032739;28;20237;-62
2024/01/03 07:45:35;;;;;;;6.00;3.10;;;;;;;;;;5005928;28;20052;-62
2024/01/03 07:48:01;;;;;;;6.25;2.45;;;;;;;;;;5014211;28;20026;-62
2024/01/03 07:50:28;;;;;;;3.60;2.00;;;;;;;;;;5018167;28;20042;-62
2024/01/03 07:52:54;;;;;;;4.63;2.40;;;;;;;;;;5006871;28;20573;-63
2024/01/03 07:55:20;;;;;;;5.50;3.60;;;;;;;;;;5006155;28;20349;-62
2024/01/03 07:57:46;;;;;;;5.10;2.55;;;;;;;;;;5020804;28;20029;-62
2024/01/03 08:00:12;;;;;;;5.82;3.85;;;;;;;;;;5007704;28;20395;-62
2024/01/03 08:02:38;;;;;;;9.75;5.28;;;;;;;;;;5018104;28;20057;-62
2024/01/03 08:05:07;;;;;;;7.10;2.53;;;;;;;;;;5003098;28;20030;-62
2024/01/03 08:07:33;;;;;;;3.03;2.10;;;;;;;;;;5020650;28;20046;-70
2024/01/03 08:09:59;;;;;;;4.70;2.50;;;;;;;;;;5017043;28;20048;-71
2024/01/03 08:12:25;;;;;;;2.80;2.53;;;;;;;;;;5015907;28;20033;-62
2024/01/03 08:14:52;;;;;;;7.25;2.72;;;;;;;;;;5023661;28;20021;-68
2024/01/03 08:17:18;;;;;;;4.78;3.13;;;;;;;;;;5042506;28;20041;-63
2024/01/03 08:19:44;;;;;;;3.85;2.40;;;;;;;;;;5013363;28;20021;-62
2024/01/03 08:22:10;;;;;;;6.82;2.70;;;;;;;;;;5015680;28;20025;-63
2024/01/03 08:24:36;;;;;;;6.40;2.90;;;;;;;;;;5020335;28;20036;-62
2024/01/03 08:27:04;;;;;;;4.93;2.28;;;;;;;;;;5015213;28;20107;-62
2024/01/03 08:29:30;;;;;;;5.10;2.63;;;;;;;;;;5019964;28;21075;-62
2024/01/03 08:31:57;;;;;;;3.03;2.25;;;;;;;;;;5013300;28;20095;-62
2024/01/03 08:34:23;;;;;;;2.72;2.53;;;;;;;;;;5009190;28;20677;-62
2024/01/03 08:36:49;;;;;;;5.82;2.58;;;;;;;;;;5015562;28;20489;-62
2024/01/03 08:39:15;;;;;;;4.35;2.85;;;;;;;;;;5015891;28;20693;-62
2024/01/03 08:41:41;;;;;;;3.47;2.88;;;;;;;;;;5039451;28;20026;-62
2024/01/03 08:44:08;;;;;;;5.13;3.00;;;;;;;;;;5024693;28;20547;-67
2024/01/03 08:46:41;;;;;;;5.70;3.85;;;;;;;;;;5017118;28;20029;-62
2024/01/03 08:49:08;;;;;;;9.23;4.78;;;;;;;;;;5038939;28;20099;-62
2024/01/03 08:51:34;;;;;;;8.10;3.83;;;;;;;;;;5022589;28;20120;-62
2024/01/03 08:54:00;;;;;;;3.35;2.65;;;;;;;;;;5021900;28;20427;-62
2024/01/03 08:56:26;;;;;;;9.80;3.25;;;;;;;;;;5013391;28;20029;-62
2024/01/03 08:58:52;;;;;;;3.38;2.75;;;;;;;;;;5021470;28;20045;-62
2024/01/03 09:01:19;;;;;;;5.97;3.70;;;;;;;;;;5025395;28;20033;-63
2024/01/03 09:03:46;;;;;;;5.97;2.40;;;;;;;;;;5020249;28;20117;-63
2024/01/03 09:06:22;;;;;;;5.80;2.25;;;;;;;;;;5029478;28;20026;-62
2024/01/03 09:08:50;;;;;;;5.05;2.40;;;;;;;;;;5018830;28;20691;-62
2024/01/03 09:11:18;;;;;;;2.83;2.53;;;;;;;;;;5031083;28;20018;-62
2024/01/03 09:13:48;;;;;;;6.03;2.58;;;;;;;;;;5021954;28;20101;-61
2024/01/03 09:16:17;;;;;;;7.18;2.47;;;;;;;;;;5032966;28;20025;-62
2024/01/03 09:18:43;;;;;;;3.33;2.75;;;;;;;;;;5040052;28;20018;-63
2024/01/03 09:21:09;;;;;;;4.55;2.55;;;;;;;;;;5034388;28;20029;-62
2024/01/03 09:23:36;;;;;;;6.82;2.63;;;;;;;;;;5014690;28;20028;-62
2024/01/03 09:26:06;;;;;;;4.20;2.33;;;;;;;;;;5016650;28;20390;-63
2024/01/03 09:28:32;;;;;;;4.50;2.63;;;;;;;;;;5009940;28;20017;-66
2024/01/03 09:30:59;;;;;;;5.63;2.97;;;;;;;;;;5023730;28;20433;-62
2024/01/03 09:33:25;;;;;;;4.00;2.33;;;;;;;;;;5014247;28;20025;-62
2024/01/03 09:35:51;;;;;;;6.63;2.42;;;;;;;;;;5018078;28;20076;-62
2024/01/03 09:38:17;;;;;;;3.55;2.53;;;;;;;;;;5022326;28;20076;-62
2024/01/03 09:40:43;;;;;;;3.95;2.40;;;;;;;;;;5022499;28;20052;-62
2024/01/03 09:43:13;;;;;;;2.72;2.10;;;;;;;;;;5008118;28;20489;-63
2024/01/03 09:45:39;;;;;;;5.38;2.95;;;;;;;;;;5018415;28;20056;-62
2024/01/03 09:48:05;;;;;;;3.03;2.15;;;;;;;;;;5015604;28;20420;-62
2024/01/03 09:50:32;;;;;;;3.17;2.38;;;;;;;;;;5026240;28;20041;-62
2024/01/03 09:52:58;;;;;;;2.85;2.50;;;;;;;;;;5019197;28;20026;-62
2024/01/03 09:55:24;;;;;;;4.43;2.15;;;;;;;;;;5013966;28;20013;-63
2024/01/03 09:57:51;;;;;;;4.43;1.90;;;;;;;;;;5017137;28;20108;-62
2024/01/03 10:00:17;;;;;;;3.50;2.20;;;;;;;;;;5012394;28;20109;-62
2024/01/03 10:02:47;;;;;;;2.65;1.92;;;;;;;;;;5019107;28;20462;-63
2024/01/03 10:05:20;;;;;;;2.28;2.05;;;;;;;;;;5011244;28;20018;-66
2024/01/03 10:07:46;;;;;;;9.85;2.17;;;;;;;;;;5020761;28;20029;-62
2024/01/03 10:10:14;;;;;;;3.05;2.00;;;;;;;;;;5021827;28;20193;-68
2024/01/03 10:12:40;;;;;;;4.43;2.35;;;;;;;;;;5013084;28;20025;-62
2024/01/03 10:15:16;;;;;;;2.10;1.90;;;;;;;;;;5017162;28;20032;-63
2024/01/03 10:17:46;;;;;;;4.63;2.20;;;;;;;;;;5023172;28;20478;-62
2024/01/03 10:20:24;;;;;;;1.85;1.70;;;;;;;;;;5018301;28;20029;-64
2024/01/03 10:23:03;;;;;;;1.73;1.63;;;;;;;;;;5026751;28;20038;-62
2024/01/03 10:25:29;;;;;;;3.05;2.00;;;;;;;;;;5020362;28;20025;-62
2024/01/03 10:28:05;;;;;;;3.05;1.92;;;;;;;;;;5012976;28;20497;-62
2024/01/03 10:30:31;;;;;;;2.38;2.08;;;;;;;;;;5020344;28;20544;-62
2024/01/03 10:33:01;;;;;;;1.90;1.70;;;;;;;;;;5016976;28;20030;-62
2024/01/03 10:35:31;;;;;;;2.60;2.13;;;;;;;;;;5009495;28;20026;-65
2024/01/03 10:37:59;;;;;;;8.27;2.63;;;;;;;;;;5025740;28;20094;-62
2024/01/03 10:40:25;;;;;;;2.45;2.25;;;;;;;;;;5015739;28;20557;-63
2024/01/03 10:42:52;;;;;;;7.18;2.63;;;;;;;;;;5017589;28;20466;-69
2024/01/03 10:45:18;;;;;;;6.18;2.50;;;;;;;;;;5014063;28;20486;-66
2024/01/03 10:47:44;;;;;;;4.28;2.35;;;;;;;;;;5034328;28;20060;-62
2024/01/03 10:50:11;;;;;;;5.30;2.28;;;;;;;;;;5028416;28;20064;-62
2024/01/03 10:52:37;;;;;;;5.07;2.22;;;;;;;;;;5030570;28;20055;-62
2024/01/03 10:55:10;;;;;;;2.78;2.10;;;;;;;;;;5038926;28;20030;-63
2024/01/03 10:57:36;;;;;;;5.15;2.88;;;;;;;;;;5017647;28;20906;-62
2024/01/03 11:00:33;;;;;;;3.95;2.15;;;;;;;;;;5019704;28;20041;-62
2024/01/03 11:03:19;;;;;;;11.98;3.40;;;;;;;;;;5037659;28;20531;-62
2024/01/03 11:05:52;;;;;;;5.38;2.78;;;;;;;;;;5019324;28;20033;-63
2024/01/03 11:08:20;;;;;;;4.18;3.00;;;;;;;;;;5028020;28;20040;-64
2024/01/03 11:10:47;;;;;;;3.78;2.97;;;;;;;;;;5019444;28;20065;-62
2024/01/03 11:13:29;;;;;;;7.78;3.47;;;;;;;;;;5015253;28;20026;-62
2024/01/03 11:15:56;;;;;;;11.70;4.00;;;;;;;;;;5022181;28;20100;-62
2024/01/03 11:18:41;;;;;;;4.50;2.90;;;;;;;;;;5006555;28;20536;-62
2024/01/03 11:21:31;;;;;;;7.70;3.40;;;;;;;;;;5018054;28;20052;-63
2024/01/03 11:24:00;;;;;;;8.77;3.53;;;;;;;;;;5023193;28;20358;-62
2024/01/03 11:26:44;;;;;;;12.65;4.35;;;;;;;;;;5009854;28;20033;-62
2024/01/03 11:29:11;;;;;;;8.30;4.35;;;;;;;;;;5014524;28;20060;-62
2024/01/03 11:31:56;;;;;;;6.85;4.68;;;;;;;;;;5015906;28;20052;-62
2024/01/03 11:34:41;;;;;;;6.00;3.05;;;;;;;;;;5030570;28;20029;-62
2024/01/03 11:37:28;;;;;;;9.95;3.75;;;;;;;;;;5013832;28;20579;-62
2024/01/03 11:39:55;;;;;;;10.55;4.63;;;;;;;;;;5026770;28;20028;-62
2024/01/03 11:42:31;;;;;;;8.00;4.28;;;;;;;;;;5017302;28;20017;-62
2024/01/03 11:45:13;;;;;;;11.75;5.35;;;;;;;;;;5026194;28;20503;-62
2024/01/03 11:47:43;;;;;;;8.23;5.15;;;;;;;;;;5003483;28;20679;-62
2024/01/03 11:50:12;;;;;;;9.68;4.80;;;;;;;;;;5016743;28;20050;-62
2024/01/03 11:52:39;;;;;;;6.03;3.60;;;;;;;;;;5008706;28;20024;-62
2024/01/03 11:55:07;;;;;;;5.22;3.47;;;;;;;;;;5019902;28;20469;-62
2024/01/03 11:57:36;;;;;;;4.68;2.75;;;;;;;;;;5011189;28;20033;-62
2024/01/03 12:00:04;;;;;;;5.85;3.28;;;;;;;;;;5019077;28;20033;-62
2024/01/03 12:02:30;;;;;;;6.68;3.33;;;;;;;;;;5030998;28;20151;-62
2024/01/03 12:05:00;;;;;;;7.18;2.30;;;;;;;;;;5020216;28;20029;-62
2024/01/03 12:07:28;;;;;;;2.80;2.22;;;;;;;;;;5005277;28;20025;-62
2024/01/03 12:09:55;;;;;;;11.13;3.03;;;;;;;;;;5012520;28;20367;-68
2024/01/03 12:12:21;;;;;;;6.15;3.53;;;;;;;;;;5009211;28;20104;-62
2024/01/03 12:14:52;;;;;;;5.88;3.47;;;;;;;;;;5016207;28;20079;-62
2024/01/03 12:17:24;;;;;;;3.83;3.05;;;;;;;;;;5014759;28;20029;-62
2024/01/03 12:19:50;;;;;;;8.90;3.33;;;;;;;;;;5016752;28;20026;-62
2024/01/03 12:22:22;;;;;;;2.90;2.60;;;;;;;;;;5017014;28;20025;-63
2024/01/03 12:24:48;;;;;;;6.50;3.20;;;;;;;;;;5016594;28;20034;-64
2024/01/03 12:27:21;;;;;;;9.73;4.93;;;;;;;;;;5024152;28;20096;-62
2024/01/03 12:29:48;;;;;;;6.20;3.25;;;;;;;;;;5010106;28;20788;-62
2024/01/03 12:32:21;;;;;;;10.25;4.60;;;;;;;;;;5021280;28;20049;-63
2024/01/03 12:34:50;;;;;;;4.18;2.97;;;;;;;;;;5017206;28;20044;-63
2024/01/03 12:37:16;;;;;;;6.03;4.07;;;;;;;;;;5017835;28;20029;-62
2024/01/03 12:39:42;;;;;;;6.75;3.13;;;;;;;;;;5025597;28;20114;-62
2024/01/03 12:42:10;;;;;;;6.88;4.15;;;;;;;;;;5023266;28;20029;-62
2024/01/03 12:44:37;;;;;;;10.52;4.53;;;;;;;;;;5017692;28;20403;-62
2024/01/03 12:47:05;;;;;;;8.38;5.00;;;;;;;;;;5023601;28;20037;-62
2024/01/03 12:49:31;;;;;;;9.50;4.28;;;;;;;;;;5017866;28;20045;-61
2024/01/03 12:51:57;;;;;;;5.60;3.78;;;;;;;;;;5007556;28;20022;-62
2024/01/03 12:54:23;;;;;;;4.97;3.17;;;;;;;;;;5026698;28;20021;-62
2024/01/03 12:56:49;;;;;;;9.10;4.68;;;;;;;;;;5012116;28;20053;-62
2024/01/03 12:59:17;;;;;;;6.60;3.20;;;;;;;;;;5023314;28;20022;-62
2024/01/03 13:01:44;;;;;;;6.28;3.10;;;;;;;;;;5023231;28;20518;-62
2024/01/03 13:04:10;;;;;;;6.97;3.03;;;;;;;;;;5019065;28;20034;-62
2024/01/03 13:06:36;;;;;;;8.52;3.85;;;;;;;;;;5009319;28;20032;-62
2024/01/03 13:09:04;;;;;;;7.40;3.58;;;;;;;;;;5018201;28;20636;-62
2024/01/03 13:11:30;;;;;;;4.88;3.50;;;;;;;;;;5019484;28;20109;-62
2024/01/03 13:13:57;;;;;;;5.65;3.17;;;;;;;;;;5015561;28;20432;-63
2024/01/03 13:16:24;;;;;;;5.22;2.80;;;;;;;;;;5035753;28;20026;-62
2024/01/03 13:18:50;;;;;;;7.25;2.53;;;;;;;;;;5017063;28;20432;-64
2024/01/03 13:21:17;;;;;;;4.50;3.25;;;;;;;;;;5018666;28;20018;-62
2024/01/03 13:23:43;;;;;;;4.57;3.28;;;;;;;;;;5035582;28;20567;-62
2024/01/03 13:26:10;;;;;;;8.32;3.55;;;;;;;;;;5013992;28;20034;-62
2024/01/03 13:28:36;;;;;;;12.23;4.20;;;;;;;;;;5019362;28;20065;-62
2024/01/03 13:31:05;;;;;;;7.82;4.53;;;;;;;;;;5016137;28;20113;-62
2024/01/03 13:33:31;;;;;;;7.47;4.90;;;;;;;;;;5013450;28;20133;-62
2024/01/03 13:35:57;;;;;;;16.63;6.45;;;;;;;;;;5031452;28;20017;-63
2024/01/03 13:38:23;;;;;;;13.40;9.45;;;;;;;;;;5012804;28;20034;-63
2024/01/03 13:40:50;;;;;;;5.63;4.30;;;;;;;;;;5014786;28;20038;-62
2024/01/03 13:43:16;;;;;;;13.55;8.63;;;;;;;;;;5016710;28;20029;-63
2024/01/03 13:45:42;;;;;;;14.82;5.80;;;;;;;;;;5021580;28;20021;-62
2024/01/03 13:48:08;;;;;;;12.52;5.18;;;;;;;;;;5023460;28;20061;-62
2024/01/03 13:50:35;;;;;;;10.27;3.72;;;;;;;;;;5039361;28;20037;-62
2024/01/03 13:53:03;;;;;;;3.95;2.88;;;;;;;;;;5017669;28;20057;-63
2024/01/03 13:55:29;;;;;;;8.70;3.25;;;;;;;;;;5005155;28;20107;-63
2024/01/03 13:57:57;;;;;;;3.35;2.50;;;;;;;;;;5015850;28;20053;-63
2024/01/03 14:00:23;;;;;;;12.82;3.83;;;;;;;;;;5012862;28;20017;-62
2024/01/03 14:02:54;;;;;;;14.93;5.20;;;;;;;;;;5016477;28;20042;-64
2024/01/03 14:05:20;;;;;;;6.35;3.60;;;;;;;;;;5015176;28;20092;-62
2024/01/03 14:07:47;;;;;;;7.45;4.03;;;;;;;;;;5016085;28;20390;-64
2024/01/03 14:10:13;;;;;;;12.20;4.13;;;;;;;;;;5014184;28;20025;-63
2024/01/03 14:12:39;;;;;;;2.03;1.65;;;;;;;;;;5012094;28;20392;-64
2024/01/03 14:15:07;;;;;;;8.77;3.08;;;;;;;;;;5018548;28;20029;-63
2024/01/03 14:17:33;;;;;;;10.10;4.20;;;;;;;;;;5021050;28;20033;-65
2024/01/03 14:19:59;;;;;;;6.47;3.17;;;;;;;;;;5012825;28;20034;-61
2024/01/03 14:22:27;;;;;;;4.32;3.15;;;;;;;;;;5019145;28;20038;-61
2024/01/03 14:24:53;;;;;;;4.10;3.03;;;;;;;;;;5013641;28;20026;-62
2024/01/03 14:27:19;;;;;;;3.72;1.67;;;;;;;;;;5019348;28;20033;-63
2024/01/03 14:29:45;;;;;;;6.07;2.45;;;;;;;;;;5018161;28;20034;-62
2024/01/03 14:32:12;;;;;;;7.18;2.42;;;;;;;;;;5019915;28;20581;-63
2024/01/03 14:34:38;;;;;;;2.70;2.42;;;;;;;;;;5032014;28;20796;-62
2024/01/03 14:37:06;;;;;;;5.07;2.08;;;;;;;;;;5020233;28;20065;-62
2024/01/03 14:39:33;;;;;;;5.18;2.60;;;;;;;;;;5022376;28;20504;-62
2024/01/03 14:42:02;;;;;;;8.55;2.58;;;;;;;;;;5013360;28;20233;-64
2024/01/03 14:44:29;;;;;;;2.50;2.25;;;;;;;;;;5018232;28;20493;-65